sensor_id;sensor_type;location;lat;lon;timestamp;pressure;altitude;pressure_sealevel;temperature;humidity
50650;BME280;36621;60.058;30.346;2023-03-21T00:06:24;100082.53;;;7.21;66.06
50650;BME280;36621;60.058;30.346;2023-03-21T00:13:56;100083.03;;;7.12;66.74
50650;BME280;36621;60.058;30.346;2023-03-21T00:21:33;100057.94;;;6.85;67.34
50650;BME280;36621;60.058;30.346;2023-03-21T00:29:08;100042.34;;;6.59;66.93
50650;BME280;36621;60.058;30.346;2023-03-21T00:36:41;100078.53;;;6.81;68.30
50650;BME280;36621;60.058;30.346;2023-03-21T00:44:13;100079.50;;;6.59;68.02
50650;BME280;36621;60.058;30.346;2023-03-21T00:51:46;100059.88;;;6.41;69.37
50650;BME280;36621;60.058;30.346;2023-03-21T00:59:21;100063.00;;;6.23;70.29
50650;BME280;36621;60.058;30.346;2023-03-21T01:06:54;100077.16;;;5.98;70.89
50650;BME280;36621;60.058;30.346;2023-03-21T01:14:26;100100.47;;;5.22;71.14
50650;BME280;36621;60.058;30.346;2023-03-21T01:21:59;100104.00;;;4.27;70.21
50650;BME280;36621;60.058;30.346;2023-03-21T01:29:31;100110.16;;;4.06;70.49
50650;BME280;36621;60.058;30.346;2023-03-21T01:37:04;100109.72;;;3.97;71.47
50650;BME280;36621;60.058;30.346;2023-03-21T01:44:53;100120.06;;;3.71;72.42
50650;BME280;36621;60.058;30.346;2023-03-21T01:52:29;100127.19;;;3.60;71.66
50650;BME280;36621;60.058;30.346;2023-03-21T02:00:05;100104.09;;;3.53;71.54
50650;BME280;36621;60.058;30.346;2023-03-21T02:07:52;100140.00;;;3.53;70.97
50650;BME280;36621;60.058;30.346;2023-03-21T02:15:25;100101.44;;;3.41;71.17
50650;BME280;36621;60.058;30.346;2023-03-21T02:31:24;100115.28;;;3.44;72.07
50650;BME280;36621;60.058;30.346;2023-03-21T02:39:07;100138.94;;;3.54;71.95
50650;BME280;36621;60.058;30.346;2023-03-21T02:46:45;100150.19;;;3.22;72.05
50650;BME280;36621;60.058;30.346;2023-03-21T02:54:23;100084.81;;;2.91;72.13
50650;BME280;36621;60.058;30.346;2023-03-21T03:01:57;100113.50;;;3.09;72.40
50650;BME280;36621;60.058;30.346;2023-03-21T03:09:40;100140.28;;;3.40;72.64
50650;BME280;36621;60.058;30.346;2023-03-21T03:17:25;100133.72;;;3.36;72.43
50650;BME280;36621;60.058;30.346;2023-03-21T03:25:07;100121.91;;;3.25;71.43
50650;BME280;36621;60.058;30.346;2023-03-21T03:32:46;100094.28;;;3.06;72.20
50650;BME280;36621;60.058;30.346;2023-03-21T03:40:24;100019.25;;;2.50;72.44
50650;BME280;36621;60.058;30.346;2023-03-21T03:48:15;100161.00;;;3.22;72.21
50650;BME280;36621;60.058;30.346;2023-03-21T03:55:53;100157.13;;;3.18;72.29
50650;BME280;36621;60.058;30.346;2023-03-21T04:03:26;100161.81;;;3.11;72.28
50650;BME280;36621;60.058;30.346;2023-03-21T04:11:06;100179.63;;;3.24;72.50
50650;BME280;36621;60.058;30.346;2023-03-21T04:18:42;100092.13;;;2.55;71.63
50650;BME280;36621;60.058;30.346;2023-03-21T04:26:15;100141.78;;;2.95;71.40
50650;BME280;36621;60.058;30.346;2023-03-21T04:33:57;100200.72;;;3.39;71.94
50650;BME280;36621;60.058;30.346;2023-03-21T04:41:32;100214.31;;;3.32;71.45
50650;BME280;36621;60.058;30.346;2023-03-21T04:49:09;100213.03;;;3.35;71.64
50650;BME280;36621;60.058;30.346;2023-03-21T04:56:42;100212.69;;;3.31;72.86
50650;BME280;36621;60.058;30.346;2023-03-21T05:04:15;100208.00;;;3.26;71.68
50650;BME280;36621;60.058;30.346;2023-03-21T05:11:50;100138.94;;;3.02;71.43
50650;BME280;36621;60.058;30.346;2023-03-21T05:19:26;100232.47;;;3.60;71.18
50650;BME280;36621;60.058;30.346;2023-03-21T14:42:50;100521.63;;;4.30;59.92
50650;BME280;36621;60.058;30.346;2023-03-21T14:50:23;100509.06;;;4.12;60.04
50650;BME280;36621;60.058;30.346;2023-03-21T14:58:00;100499.66;;;4.03;59.89
50650;BME280;36621;60.058;30.346;2023-03-21T15:05:34;100501.75;;;3.77;59.52
50650;BME280;36621;60.058;30.346;2023-03-21T15:13:14;100481.41;;;3.62;62.34
50650;BME280;36621;60.058;30.346;2023-03-21T15:20:49;100511.50;;;3.66;60.33
50650;BME280;36621;60.058;30.346;2023-03-21T15:28:24;100440.59;;;3.05;61.30
50650;BME280;36621;60.058;30.346;2023-03-21T15:35:58;100528.44;;;3.43;60.20
50650;BME280;36621;60.058;30.346;2023-03-21T15:43:37;100529.81;;;3.34;61.92
50650;BME280;36621;60.058;30.346;2023-03-21T15:51:15;100489.75;;;2.88;61.60
50650;BME280;36621;60.058;30.346;2023-03-21T15:58:51;100524.00;;;2.88;62.91
50650;BME280;36621;60.058;30.346;2023-03-21T16:06:29;100526.09;;;2.67;63.45
50650;BME280;36621;60.058;30.346;2023-03-21T16:14:02;100536.59;;;2.57;61.66
50650;BME280;36621;60.058;30.346;2023-03-21T16:21:34;100469.66;;;1.98;62.38
50650;BME280;36621;60.058;30.346;2023-03-21T16:29:11;100550.50;;;2.35;64.35
50650;BME280;36621;60.058;30.346;2023-03-21T16:36:44;100545.28;;;2.15;63.00
50650;BME280;36621;60.058;30.346;2023-03-21T16:44:17;100557.28;;;2.19;64.38
50650;BME280;36621;60.058;30.346;2023-03-21T16:51:51;100558.84;;;2.08;65.55
50650;BME280;36621;60.058;30.346;2023-03-21T16:59:24;100550.91;;;1.88;64.57
50650;BME280;36621;60.058;30.346;2023-03-21T17:06:59;100572.25;;;1.90;65.36
50650;BME280;36621;60.058;30.346;2023-03-21T17:14:33;100480.81;;;1.19;64.89
50650;BME280;36621;60.058;30.346;2023-03-21T17:22:07;100569.72;;;1.63;64.79
50650;BME280;36621;60.058;30.346;2023-03-21T17:29:48;100589.72;;;1.81;66.41
50650;BME280;36621;60.058;30.346;2023-03-21T17:37:21;100574.13;;;1.58;65.52
50650;BME280;36621;60.058;30.346;2023-03-21T17:45:01;100578.09;;;1.55;65.85
50650;BME280;36621;60.058;30.346;2023-03-21T17:52:45;100574.97;;;1.51;65.77
50650;BME280;36621;60.058;30.346;2023-03-21T18:00:23;100592.09;;;1.64;66.30
50650;BME280;36621;60.058;30.346;2023-03-21T18:07:56;100531.56;;;1.09;65.57
50650;BME280;36621;60.058;30.346;2023-03-21T18:23:46;100537.50;;;1.25;65.13
50650;BME280;36621;60.058;30.346;2023-03-21T18:31:23;100569.69;;;1.38;65.58
50650;BME280;36621;60.058;30.346;2023-03-21T18:38:56;100559.53;;;1.40;65.17
50650;BME280;36621;60.058;30.346;2023-03-21T18:46:32;100559.16;;;1.36;65.57
50650;BME280;36621;60.058;30.346;2023-03-21T18:54:24;100562.38;;;1.52;66.41
50650;BME280;36621;60.058;30.346;2023-03-21T19:01:57;100547.56;;;1.36;64.72
50650;BME280;36621;60.058;30.346;2023-03-21T19:09:30;100580.16;;;1.53;64.84
50650;BME280;36621;60.058;30.346;2023-03-21T19:17:04;100581.00;;;1.53;64.63
50650;BME280;36621;60.058;30.346;2023-03-21T19:24:58;100459.31;;;0.81;65.40
50650;BME280;36621;60.058;30.346;2023-03-21T19:32:35;100554.56;;;1.37;65.03
50650;BME280;36621;60.058;30.346;2023-03-21T19:58:05;100596.22;;;1.66;65.61
50650;BME280;36621;60.058;30.346;2023-03-21T20:05:45;100583.00;;;1.65;66.08
50650;BME280;36621;60.058;30.346;2023-03-21T20:13:18;100615.66;;;2.00;67.17
50650;BME280;36621;60.058;30.346;2023-03-21T20:20:50;100576.19;;;1.87;66.85
50650;BME280;36621;60.058;30.346;2023-03-21T20:28:23;100576.97;;;1.95;67.04
50650;BME280;36621;60.058;30.346;2023-03-21T20:36:07;100611.44;;;2.36;67.77
50650;BME280;36621;60.058;30.346;2023-03-21T20:43:44;100616.44;;;2.33;67.55
50650;BME280;36621;60.058;30.346;2023-03-21T20:51:20;100621.22;;;2.31;67.84
50650;BME280;36621;60.058;30.346;2023-03-21T20:59:22;100608.22;;;2.46;68.89
50650;BME280;36621;60.058;30.346;2023-03-21T21:06:53;100629.63;;;2.41;67.88
50650;BME280;36621;60.058;30.346;2023-03-21T21:14:26;100628.75;;;2.47;67.69
50650;BME280;36621;60.058;30.346;2023-03-21T21:21:58;100631.16;;;2.55;67.74
50650;BME280;36621;60.058;30.346;2023-03-21T21:29:32;100611.75;;;2.47;67.37
50650;BME280;36621;60.058;30.346;2023-03-21T21:37:03;100643.31;;;2.65;67.50
50650;BME280;36621;60.058;30.346;2023-03-21T21:44:40;100656.56;;;2.66;68.33
50650;BME280;36621;60.058;30.346;2023-03-21T21:52:15;100654.97;;;2.58;67.94
50650;BME280;36621;60.058;30.346;2023-03-21T22:00:17;100643.53;;;2.63;69.27
50650;BME280;36621;60.058;30.346;2023-03-21T22:07:51;100636.22;;;2.45;67.91
50650;BME280;36621;60.058;30.346;2023-03-21T22:15:27;100617.56;;;2.43;67.60
50650;BME280;36621;60.058;30.346;2023-03-21T22:22:58;100659.19;;;2.73;67.00
50650;BME280;36621;60.058;30.346;2023-03-21T22:30:31;100662.50;;;2.75;67.82
50650;BME280;36621;60.058;30.346;2023-03-21T22:38:03;100651.94;;;2.73;67.44
50650;BME280;36621;60.058;30.346;2023-03-21T22:45:36;100658.38;;;2.72;67.57
50650;BME280;36621;60.058;30.346;2023-03-21T22:53:08;100671.72;;;2.86;67.26
50650;BME280;36621;60.058;30.346;2023-03-21T23:00:40;100671.88;;;2.91;67.98
50650;BME280;36621;60.058;30.346;2023-03-21T23:08:12;100648.34;;;2.80;67.45
50650;BME280;36621;60.058;30.346;2023-03-21T23:15:54;100682.47;;;3.11;68.58
50650;BME280;36621;60.058;30.346;2023-03-21T23:23:26;100678.47;;;2.95;67.49
50650;BME280;36621;60.058;30.346;2023-03-21T23:31:05;100650.53;;;2.89;68.04
50650;BME280;36621;60.058;30.346;2023-03-21T23:38:37;100663.78;;;2.91;67.35
50650;BME280;36621;60.058;30.346;2023-03-21T23:46:11;100658.84;;;2.88;67.72
50650;BME280;36621;60.058;30.346;2023-03-21T23:53:44;100681.41;;;2.93;67.62
